sensor_id;sensor_type;location;lat;lon;timestamp;P1;durP1;ratioP1;P2;durP2;ratioP2
2289;SDS011;1153;47.986;7.898;2022-07-29T00:01:13;5.70;;;3.87;;
2289;SDS011;1153;47.986;7.898;2022-07-29T00:03:39;4.90;;;4.07;;
2289;SDS011;1153;47.986;7.898;2022-07-29T00:06:04;7.83;;;3.60;;
2289;SDS011;1153;47.986;7.898;2022-07-29T00:08:29;4.70;;;3.83;;
2289;SDS011;1153;47.986;7.898;2022-07-29T00:10:54;5.10;;;4.80;;
2289;SDS011;1153;47.986;7.898;2022-07-29T00:13:20;5.17;;;4.97;;
2289;SDS011;1153;47.986;7.898;2022-07-29T00:15:45;4.20;;;3.80;;
2289;SDS011;1153;47.986;7.898;2022-07-29T00:18:10;5.27;;;4.83;;
2289;SDS011;1153;47.986;7.898;2022-07-29T00:20:35;4.80;;;4.13;;
2289;SDS011;1153;47.986;7.898;2022-07-29T00:23:00;5.27;;;4.80;;
2289;SDS011;1153;47.986;7.898;2022-07-29T00:25:26;7.30;;;3.97;;
2289;SDS011;1153;47.986;7.898;2022-07-29T00:27:51;5.33;;;5.13;;
2289;SDS011;1153;47.986;7.898;2022-07-29T00:30:16;6.07;;;5.27;;
2289;SDS011;1153;47.986;7.898;2022-07-29T00:32:41;5.13;;;4.70;;
2289;SDS011;1153;47.986;7.898;2022-07-29T00:35:07;5.73;;;5.00;;
2289;SDS011;1153;47.986;7.898;2022-07-29T00:37:51;3.40;;;3.30;;
2289;SDS011;1153;47.986;7.898;2022-07-29T00:40:16;5.50;;;5.20;;
2289;SDS011;1153;47.986;7.898;2022-07-29T00:42:45;4.40;;;4.20;;
2289;SDS011;1153;47.986;7.898;2022-07-29T00:45:10;5.87;;;4.30;;
2289;SDS011;1153;47.986;7.898;2022-07-29T00:47:36;5.20;;;4.77;;
2289;SDS011;1153;47.986;7.898;2022-07-29T00:50:01;3.67;;;3.57;;
2289;SDS011;1153;47.986;7.898;2022-07-29T00:52:28;4.13;;;3.93;;
2289;SDS011;1153;47.986;7.898;2022-07-29T00:54:53;5.57;;;5.27;;
2289;SDS011;1153;47.986;7.898;2022-07-29T00:57:18;4.53;;;4.20;;
2289;SDS011;1153;47.986;7.898;2022-07-29T00:59:44;8.50;;;4.10;;
2289;SDS011;1153;47.986;7.898;2022-07-29T01:02:10;4.87;;;4.67;;
2289;SDS011;1153;47.986;7.898;2022-07-29T01:04:35;4.70;;;4.30;;
2289;SDS011;1153;47.986;7.898;2022-07-29T01:07:01;4.57;;;4.37;;
2289;SDS011;1153;47.986;7.898;2022-07-29T01:09:26;4.67;;;4.47;;
2289;SDS011;1153;47.986;7.898;2022-07-29T01:11:52;4.50;;;4.10;;
2289;SDS011;1153;47.986;7.898;2022-07-29T01:14:18;4.47;;;4.13;;
2289;SDS011;1153;47.986;7.898;2022-07-29T01:17:00;5.20;;;4.90;;
2289;SDS011;1153;47.986;7.898;2022-07-29T01:21:56;6.20;;;5.80;;
2289;SDS011;1153;47.986;7.898;2022-07-29T01:30:05;4.50;;;4.30;;
2289;SDS011;1153;47.986;7.898;2022-07-29T01:32:33;9.10;;;5.00;;
2289;SDS011;1153;47.986;7.898;2022-07-29T01:37:44;5.13;;;4.93;;
2289;SDS011;1153;47.986;7.898;2022-07-29T01:40:34;5.07;;;4.87;;
2289;SDS011;1153;47.986;7.898;2022-07-29T01:42:55;5.37;;;4.97;;
2289;SDS011;1153;47.986;7.898;2022-07-29T01:45:32;5.60;;;5.23;;
2289;SDS011;1153;47.986;7.898;2022-07-29T01:48:03;6.40;;;6.00;;
2289;SDS011;1153;47.986;7.898;2022-07-29T01:50:33;5.70;;;5.50;;
2289;SDS011;1153;47.986;7.898;2022-07-29T01:53:00;5.93;;;5.20;;
2289;SDS011;1153;47.986;7.898;2022-07-29T01:55:27;4.30;;;4.00;;
2289;SDS011;1153;47.986;7.898;2022-07-29T01:57:53;6.13;;;5.60;;
2289;SDS011;1153;47.986;7.898;2022-07-29T02:00:19;6.13;;;5.73;;
2289;SDS011;1153;47.986;7.898;2022-07-29T02:02:45;5.23;;;4.93;;
2289;SDS011;1153;47.986;7.898;2022-07-29T02:05:12;4.90;;;4.70;;
2289;SDS011;1153;47.986;7.898;2022-07-29T02:07:39;4.50;;;3.90;;
2289;SDS011;1153;47.986;7.898;2022-07-29T02:10:05;4.40;;;4.20;;
2289;SDS011;1153;47.986;7.898;2022-07-29T02:12:31;5.93;;;5.47;;
2289;SDS011;1153;47.986;7.898;2022-07-29T02:14:57;5.30;;;5.00;;
2289;SDS011;1153;47.986;7.898;2022-07-29T02:20:12;5.77;;;5.47;;
2289;SDS011;1153;47.986;7.898;2022-07-29T02:22:39;5.93;;;5.67;;
2289;SDS011;1153;47.986;7.898;2022-07-29T02:25:05;5.70;;;5.40;;
2289;SDS011;1153;47.986;7.898;2022-07-29T02:27:31;5.57;;;5.27;;
2289;SDS011;1153;47.986;7.898;2022-07-29T02:29:58;5.50;;;5.27;;
2289;SDS011;1153;47.986;7.898;2022-07-29T02:32:25;5.10;;;4.90;;
2289;SDS011;1153;47.986;7.898;2022-07-29T02:34:52;4.83;;;4.63;;
2289;SDS011;1153;47.986;7.898;2022-07-29T02:37:17;4.73;;;4.47;;
2289;SDS011;1153;47.986;7.898;2022-07-29T02:39:43;5.90;;;5.50;;
2289;SDS011;1153;47.986;7.898;2022-07-29T02:42:10;5.77;;;5.37;;
2289;SDS011;1153;47.986;7.898;2022-07-29T02:44:36;6.43;;;5.93;;
2289;SDS011;1153;47.986;7.898;2022-07-29T02:47:04;6.73;;;6.43;;
2289;SDS011;1153;47.986;7.898;2022-07-29T02:49:42;6.60;;;6.40;;
2289;SDS011;1153;47.986;7.898;2022-07-29T02:52:19;4.87;;;4.67;;
2289;SDS011;1153;47.986;7.898;2022-07-29T02:57:54;6.50;;;6.20;;
2289;SDS011;1153;47.986;7.898;2022-07-29T03:00:02;6.23;;;5.87;;
2289;SDS011;1153;47.986;7.898;2022-07-29T03:02:29;6.60;;;5.83;;
2289;SDS011;1153;47.986;7.898;2022-07-29T03:04:56;5.63;;;5.23;;
2289;SDS011;1153;47.986;7.898;2022-07-29T03:07:22;6.87;;;6.50;;
2289;SDS011;1153;47.986;7.898;2022-07-29T03:09:48;6.57;;;6.20;;
2289;SDS011;1153;47.986;7.898;2022-07-29T03:12:14;6.20;;;5.90;;
2289;SDS011;1153;47.986;7.898;2022-07-29T03:14:39;7.03;;;6.33;;
2289;SDS011;1153;47.986;7.898;2022-07-29T03:17:05;7.90;;;6.30;;
2289;SDS011;1153;47.986;7.898;2022-07-29T03:19:30;5.50;;;5.30;;
2289;SDS011;1153;47.986;7.898;2022-07-29T03:21:57;7.33;;;6.90;;
2289;SDS011;1153;47.986;7.898;2022-07-29T03:24:30;7.10;;;6.63;;
2289;SDS011;1153;47.986;7.898;2022-07-29T03:26:55;6.10;;;5.80;;
2289;SDS011;1153;47.986;7.898;2022-07-29T03:29:21;5.50;;;5.30;;
2289;SDS011;1153;47.986;7.898;2022-07-29T03:31:46;5.57;;;5.27;;
2289;SDS011;1153;47.986;7.898;2022-07-29T03:34:11;5.00;;;4.73;;
2289;SDS011;1153;47.986;7.898;2022-07-29T03:36:37;5.67;;;5.33;;
2289;SDS011;1153;47.986;7.898;2022-07-29T03:39:02;6.70;;;6.50;;
2289;SDS011;1153;47.986;7.898;2022-07-29T03:41:28;6.73;;;5.40;;
2289;SDS011;1153;47.986;7.898;2022-07-29T03:43:54;7.53;;;6.80;;
2289;SDS011;1153;47.986;7.898;2022-07-29T03:46:20;6.63;;;5.60;;
2289;SDS011;1153;47.986;7.898;2022-07-29T03:48:48;6.20;;;5.90;;
2289;SDS011;1153;47.986;7.898;2022-07-29T03:51:13;5.17;;;4.97;;
2289;SDS011;1153;47.986;7.898;2022-07-29T03:53:39;5.20;;;5.00;;
2289;SDS011;1153;47.986;7.898;2022-07-29T03:56:04;6.60;;;6.10;;
2289;SDS011;1153;47.986;7.898;2022-07-29T03:58:31;6.53;;;4.83;;
2289;SDS011;1153;47.986;7.898;2022-07-29T04:00:56;4.33;;;4.13;;
2289;SDS011;1153;47.986;7.898;2022-07-29T04:03:22;5.73;;;5.30;;
2289;SDS011;1153;47.986;7.898;2022-07-29T04:05:57;10.70;;;4.90;;
2289;SDS011;1153;47.986;7.898;2022-07-29T04:08:22;5.47;;;5.10;;
2289;SDS011;1153;47.986;7.898;2022-07-29T04:10:48;4.37;;;4.17;;
2289;SDS011;1153;47.986;7.898;2022-07-29T04:13:13;5.67;;;5.23;;
2289;SDS011;1153;47.986;7.898;2022-07-29T04:15:38;6.03;;;5.73;;
2289;SDS011;1153;47.986;7.898;2022-07-29T04:18:03;6.40;;;6.10;;
2289;SDS011;1153;47.986;7.898;2022-07-29T04:20:28;7.93;;;5.70;;
2289;SDS011;1153;47.986;7.898;2022-07-29T04:22:54;7.10;;;5.10;;
2289;SDS011;1153;47.986;7.898;2022-07-29T04:25:19;5.43;;;5.03;;
2289;SDS011;1153;47.986;7.898;2022-07-29T04:27:44;6.37;;;5.97;;
2289;SDS011;1153;47.986;7.898;2022-07-29T04:30:25;5.97;;;5.63;;
2289;SDS011;1153;47.986;7.898;2022-07-29T04:32:50;5.73;;;5.50;;
2289;SDS011;1153;47.986;7.898;2022-07-29T04:35:15;6.97;;;6.57;;
2289;SDS011;1153;47.986;7.898;2022-07-29T04:37:41;5.43;;;5.07;;
2289;SDS011;1153;47.986;7.898;2022-07-29T04:40:06;6.70;;;6.30;;
2289;SDS011;1153;47.986;7.898;2022-07-29T04:42:31;5.70;;;5.23;;
2289;SDS011;1153;47.986;7.898;2022-07-29T04:44:56;6.53;;;6.33;;
2289;SDS011;1153;47.986;7.898;2022-07-29T04:47:21;6.63;;;6.10;;
2289;SDS011;1153;47.986;7.898;2022-07-29T04:49:47;8.40;;;5.93;;
2289;SDS011;1153;47.986;7.898;2022-07-29T04:52:12;5.70;;;5.50;;
2289;SDS011;1153;47.986;7.898;2022-07-29T04:54:37;6.90;;;6.60;;
2289;SDS011;1153;47.986;7.898;2022-07-29T04:57:02;6.47;;;6.27;;
2289;SDS011;1153;47.986;7.898;2022-07-29T04:59:27;6.83;;;5.90;;
2289;SDS011;1153;47.986;7.898;2022-07-29T05:01:53;8.03;;;7.50;;
2289;SDS011;1153;47.986;7.898;2022-07-29T05:04:18;6.40;;;6.10;;
2289;SDS011;1153;47.986;7.898;2022-07-29T05:06:43;5.83;;;5.53;;
2289;SDS011;1153;47.986;7.898;2022-07-29T05:09:08;5.00;;;4.80;;
2289;SDS011;1153;47.986;7.898;2022-07-29T05:11:33;5.00;;;4.80;;
2289;SDS011;1153;47.986;7.898;2022-07-29T05:13:59;5.67;;;5.23;;
2289;SDS011;1153;47.986;7.898;2022-07-29T05:16:24;5.77;;;5.57;;
2289;SDS011;1153;47.986;7.898;2022-07-29T05:18:49;5.70;;;5.40;;
2289;SDS011;1153;47.986;7.898;2022-07-29T05:21:14;5.57;;;5.27;;
2289;SDS011;1153;47.986;7.898;2022-07-29T05:23:39;6.50;;;5.90;;
2289;SDS011;1153;47.986;7.898;2022-07-29T05:26:05;5.40;;;5.20;;
2289;SDS011;1153;47.986;7.898;2022-07-29T05:28:33;6.63;;;6.00;;
2289;SDS011;1153;47.986;7.898;2022-07-29T05:30:58;5.90;;;5.60;;
2289;SDS011;1153;47.986;7.898;2022-07-29T05:33:23;5.30;;;4.90;;
2289;SDS011;1153;47.986;7.898;2022-07-29T05:35:48;5.20;;;5.00;;
2289;SDS011;1153;47.986;7.898;2022-07-29T05:38:14;8.63;;;5.73;;
2289;SDS011;1153;47.986;7.898;2022-07-29T05:40:39;6.40;;;6.20;;
2289;SDS011;1153;47.986;7.898;2022-07-29T05:43:04;5.87;;;5.67;;
2289;SDS011;1153;47.986;7.898;2022-07-29T05:45:29;5.60;;;5.10;;
2289;SDS011;1153;47.986;7.898;2022-07-29T05:47:54;4.80;;;4.60;;
2289;SDS011;1153;47.986;7.898;2022-07-29T05:50:20;6.80;;;6.30;;
2289;SDS011;1153;47.986;7.898;2022-07-29T05:52:45;6.83;;;5.97;;
2289;SDS011;1153;47.986;7.898;2022-07-29T05:55:10;6.47;;;4.60;;
2289;SDS011;1153;47.986;7.898;2022-07-29T05:57:36;5.07;;;4.57;;
2289;SDS011;1153;47.986;7.898;2022-07-29T06:00:01;6.27;;;5.93;;
2289;SDS011;1153;47.986;7.898;2022-07-29T06:02:26;5.20;;;4.90;;
2289;SDS011;1153;47.986;7.898;2022-07-29T06:04:51;6.00;;;5.60;;
2289;SDS011;1153;47.986;7.898;2022-07-29T06:07:16;6.50;;;5.90;;
2289;SDS011;1153;47.986;7.898;2022-07-29T06:09:42;12.83;;;5.67;;
2289;SDS011;1153;47.986;7.898;2022-07-29T06:12:07;5.30;;;5.10;;
2289;SDS011;1153;47.986;7.898;2022-07-29T06:14:33;4.60;;;4.40;;
2289;SDS011;1153;47.986;7.898;2022-07-29T06:16:58;5.80;;;5.37;;
2289;SDS011;1153;47.986;7.898;2022-07-29T06:19:23;5.27;;;5.07;;
2289;SDS011;1153;47.986;7.898;2022-07-29T06:21:48;6.47;;;5.90;;
2289;SDS011;1153;47.986;7.898;2022-07-29T06:24:14;5.80;;;5.40;;
2289;SDS011;1153;47.986;7.898;2022-07-29T06:26:39;6.40;;;5.13;;
2289;SDS011;1153;47.986;7.898;2022-07-29T06:29:05;8.70;;;6.43;;
2289;SDS011;1153;47.986;7.898;2022-07-29T06:31:30;5.17;;;4.97;;
2289;SDS011;1153;47.986;7.898;2022-07-29T06:33:56;6.67;;;6.17;;
2289;SDS011;1153;47.986;7.898;2022-07-29T06:36:21;6.60;;;6.10;;
2289;SDS011;1153;47.986;7.898;2022-07-29T06:38:46;7.27;;;5.43;;
2289;SDS011;1153;47.986;7.898;2022-07-29T06:41:11;7.13;;;6.50;;
2289;SDS011;1153;47.986;7.898;2022-07-29T06:43:40;6.87;;;5.07;;
2289;SDS011;1153;47.986;7.898;2022-07-29T06:46:09;6.33;;;5.83;;
2289;SDS011;1153;47.986;7.898;2022-07-29T06:48:34;6.67;;;6.20;;
2289;SDS011;1153;47.986;7.898;2022-07-29T06:51:01;5.17;;;4.97;;
2289;SDS011;1153;47.986;7.898;2022-07-29T06:53:26;5.20;;;5.00;;
2289;SDS011;1153;47.986;7.898;2022-07-29T06:55:52;5.60;;;5.40;;
2289;SDS011;1153;47.986;7.898;2022-07-29T06:58:17;5.13;;;4.93;;
2289;SDS011;1153;47.986;7.898;2022-07-29T07:00:45;5.77;;;5.27;;
2289;SDS011;1153;47.986;7.898;2022-07-29T07:03:10;6.00;;;5.80;;
2289;SDS011;1153;47.986;7.898;2022-07-29T07:05:36;5.73;;;5.53;;
2289;SDS011;1153;47.986;7.898;2022-07-29T07:08:01;6.27;;;5.77;;
2289;SDS011;1153;47.986;7.898;2022-07-29T07:10:26;7.17;;;6.40;;
2289;SDS011;1153;47.986;7.898;2022-07-29T07:12:52;8.03;;;5.60;;
2289;SDS011;1153;47.986;7.898;2022-07-29T07:15:17;5.87;;;5.50;;
2289;SDS011;1153;47.986;7.898;2022-07-29T07:17:46;10.03;;;6.77;;
2289;SDS011;1153;47.986;7.898;2022-07-29T07:20:11;6.73;;;6.07;;
2289;SDS011;1153;47.986;7.898;2022-07-29T07:22:37;5.83;;;5.53;;
2289;SDS011;1153;47.986;7.898;2022-07-29T07:25:02;6.00;;;5.70;;
2289;SDS011;1153;47.986;7.898;2022-07-29T07:27:27;5.03;;;4.60;;
2289;SDS011;1153;47.986;7.898;2022-07-29T07:29:53;5.20;;;4.90;;
2289;SDS011;1153;47.986;7.898;2022-07-29T07:32:18;4.63;;;4.43;;
2289;SDS011;1153;47.986;7.898;2022-07-29T07:34:44;5.23;;;4.93;;
2289;SDS011;1153;47.986;7.898;2022-07-29T07:37:09;5.20;;;4.90;;
2289;SDS011;1153;47.986;7.898;2022-07-29T07:39:34;6.60;;;5.13;;
2289;SDS011;1153;47.986;7.898;2022-07-29T07:42:00;6.80;;;4.67;;
2289;SDS011;1153;47.986;7.898;2022-07-29T07:44:26;4.80;;;4.50;;
2289;SDS011;1153;47.986;7.898;2022-07-29T07:46:51;3.57;;;3.47;;
2289;SDS011;1153;47.986;7.898;2022-07-29T07:49:17;5.03;;;4.73;;
2289;SDS011;1153;47.986;7.898;2022-07-29T07:51:42;8.43;;;4.60;;
2289;SDS011;1153;47.986;7.898;2022-07-29T07:54:07;4.67;;;4.43;;
2289;SDS011;1153;47.986;7.898;2022-07-29T07:56:32;7.83;;;4.50;;
2289;SDS011;1153;47.986;7.898;2022-07-29T07:58:57;4.23;;;4.03;;
2289;SDS011;1153;47.986;7.898;2022-07-29T08:01:23;5.90;;;3.43;;
2289;SDS011;1153;47.986;7.898;2022-07-29T08:03:49;4.00;;;3.70;;
2289;SDS011;1153;47.986;7.898;2022-07-29T08:06:14;4.70;;;4.30;;
2289;SDS011;1153;47.986;7.898;2022-07-29T08:08:39;3.53;;;3.43;;
2289;SDS011;1153;47.986;7.898;2022-07-29T08:11:05;5.47;;;3.70;;
2289;SDS011;1153;47.986;7.898;2022-07-29T08:13:31;4.30;;;4.00;;
2289;SDS011;1153;47.986;7.898;2022-07-29T08:15:57;6.90;;;4.40;;
2289;SDS011;1153;47.986;7.898;2022-07-29T08:18:23;4.00;;;3.60;;
2289;SDS011;1153;47.986;7.898;2022-07-29T08:20:48;3.30;;;3.13;;
2289;SDS011;1153;47.986;7.898;2022-07-29T08:23:14;3.40;;;3.10;;
2289;SDS011;1153;47.986;7.898;2022-07-29T08:25:39;3.93;;;3.63;;
2289;SDS011;1153;47.986;7.898;2022-07-29T08:28:04;2.77;;;2.67;;
2289;SDS011;1153;47.986;7.898;2022-07-29T08:30:30;3.57;;;3.40;;
2289;SDS011;1153;47.986;7.898;2022-07-29T08:32:55;2.93;;;2.73;;
2289;SDS011;1153;47.986;7.898;2022-07-29T08:35:22;4.37;;;3.97;;
2289;SDS011;1153;47.986;7.898;2022-07-29T08:37:47;3.77;;;3.57;;
2289;SDS011;1153;47.986;7.898;2022-07-29T08:40:13;3.80;;;3.60;;
2289;SDS011;1153;47.986;7.898;2022-07-29T08:42:39;7.97;;;3.77;;
2289;SDS011;1153;47.986;7.898;2022-07-29T08:45:04;3.20;;;3.00;;
2289;SDS011;1153;47.986;7.898;2022-07-29T08:47:29;3.13;;;2.93;;
2289;SDS011;1153;47.986;7.898;2022-07-29T08:49:55;2.90;;;2.80;;
2289;SDS011;1153;47.986;7.898;2022-07-29T08:52:20;3.17;;;3.07;;
2289;SDS011;1153;47.986;7.898;2022-07-29T08:54:46;3.10;;;3.00;;
2289;SDS011;1153;47.986;7.898;2022-07-29T08:57:12;5.50;;;2.73;;
2289;SDS011;1153;47.986;7.898;2022-07-29T08:59:38;2.57;;;2.43;;
2289;SDS011;1153;47.986;7.898;2022-07-29T09:02:04;3.00;;;2.90;;
2289;SDS011;1153;47.986;7.898;2022-07-29T09:04:30;3.53;;;2.90;;
2289;SDS011;1153;47.986;7.898;2022-07-29T09:06:59;3.17;;;2.97;;
2289;SDS011;1153;47.986;7.898;2022-07-29T09:09:25;5.67;;;3.37;;
2289;SDS011;1153;47.986;7.898;2022-07-29T09:11:51;4.47;;;4.27;;
2289;SDS011;1153;47.986;7.898;2022-07-29T09:14:18;4.90;;;3.53;;
2289;SDS011;1153;47.986;7.898;2022-07-29T09:16:47;3.90;;;3.70;;
2289;SDS011;1153;47.986;7.898;2022-07-29T09:19:46;3.57;;;3.47;;
2289;SDS011;1153;47.986;7.898;2022-07-29T09:22:05;2.60;;;2.50;;
2289;SDS011;1153;47.986;7.898;2022-07-29T09:24:37;4.10;;;3.73;;
2289;SDS011;1153;47.986;7.898;2022-07-29T09:27:07;3.33;;;2.67;;
2289;SDS011;1153;47.986;7.898;2022-07-29T09:29:32;3.20;;;2.93;;
2289;SDS011;1153;47.986;7.898;2022-07-29T09:31:58;2.63;;;2.53;;
2289;SDS011;1153;47.986;7.898;2022-07-29T09:34:27;2.60;;;2.50;;
2289;SDS011;1153;47.986;7.898;2022-07-29T09:36:56;2.50;;;2.40;;
2289;SDS011;1153;47.986;7.898;2022-07-29T09:41:54;4.47;;;3.70;;
2289;SDS011;1153;47.986;7.898;2022-07-29T09:44:19;6.03;;;3.30;;
2289;SDS011;1153;47.986;7.898;2022-07-29T09:49:53;2.50;;;2.30;;
2289;SDS011;1153;47.986;7.898;2022-07-29T09:52:18;5.93;;;2.20;;
2289;SDS011;1153;47.986;7.898;2022-07-29T09:54:44;2.50;;;2.30;;
2289;SDS011;1153;47.986;7.898;2022-07-29T09:57:21;8.50;;;2.60;;
2289;SDS011;1153;47.986;7.898;2022-07-29T10:00:05;2.50;;;2.40;;
2289;SDS011;1153;47.986;7.898;2022-07-29T10:02:33;5.13;;;2.63;;
2289;SDS011;1153;47.986;7.898;2022-07-29T10:04:59;4.53;;;4.10;;
2289;SDS011;1153;47.986;7.898;2022-07-29T10:07:24;2.93;;;2.07;;
2289;SDS011;1153;47.986;7.898;2022-07-29T10:09:53;2.23;;;2.13;;
2289;SDS011;1153;47.986;7.898;2022-07-29T10:12:19;5.33;;;3.33;;
2289;SDS011;1153;47.986;7.898;2022-07-29T10:14:45;2.13;;;2.03;;
2289;SDS011;1153;47.986;7.898;2022-07-29T10:17:10;1.40;;;1.30;;
2289;SDS011;1153;47.986;7.898;2022-07-29T10:19:36;3.40;;;2.03;;
2289;SDS011;1153;47.986;7.898;2022-07-29T10:22:03;2.40;;;2.30;;
2289;SDS011;1153;47.986;7.898;2022-07-29T10:24:29;2.23;;;2.03;;
2289;SDS011;1153;47.986;7.898;2022-07-29T10:26:55;1.97;;;1.87;;
2289;SDS011;1153;47.986;7.898;2022-07-29T10:29:21;2.03;;;1.93;;
2289;SDS011;1153;47.986;7.898;2022-07-29T10:31:53;1.80;;;1.70;;
2289;SDS011;1153;47.986;7.898;2022-07-29T10:34:23;2.80;;;2.00;;
2289;SDS011;1153;47.986;7.898;2022-07-29T10:36:54;1.77;;;1.67;;
2289;SDS011;1153;47.986;7.898;2022-07-29T10:44:49;5.80;;;1.83;;
2289;SDS011;1153;47.986;7.898;2022-07-29T10:47:21;2.07;;;1.90;;
2289;SDS011;1153;47.986;7.898;2022-07-29T10:49:59;3.57;;;2.03;;
2289;SDS011;1153;47.986;7.898;2022-07-29T10:52:28;3.17;;;2.20;;
2289;SDS011;1153;47.986;7.898;2022-07-29T10:55:28;2.70;;;1.93;;
2289;SDS011;1153;47.986;7.898;2022-07-29T10:58:14;3.63;;;2.23;;
2289;SDS011;1153;47.986;7.898;2022-07-29T11:00:40;11.50;;;2.77;;
2289;SDS011;1153;47.986;7.898;2022-07-29T11:03:05;3.57;;;1.97;;
2289;SDS011;1153;47.986;7.898;2022-07-29T11:05:30;4.20;;;1.80;;
2289;SDS011;1153;47.986;7.898;2022-07-29T11:10:45;2.27;;;2.07;;
2289;SDS011;1153;47.986;7.898;2022-07-29T11:13:10;3.40;;;2.10;;
2289;SDS011;1153;47.986;7.898;2022-07-29T11:15:54;3.70;;;2.77;;
2289;SDS011;1153;47.986;7.898;2022-07-29T11:18:20;2.90;;;2.40;;
2289;SDS011;1153;47.986;7.898;2022-07-29T11:20:46;11.20;;;2.80;;
2289;SDS011;1153;47.986;7.898;2022-07-29T11:29:22;9.07;;;2.80;;
2289;SDS011;1153;47.986;7.898;2022-07-29T11:31:44;3.23;;;3.00;;
2289;SDS011;1153;47.986;7.898;2022-07-29T11:39:37;2.00;;;1.90;;
2289;SDS011;1153;47.986;7.898;2022-07-29T11:45:00;3.00;;;2.80;;
2289;SDS011;1153;47.986;7.898;2022-07-29T11:47:26;5.20;;;3.17;;
2289;SDS011;1153;47.986;7.898;2022-07-29T11:49:52;2.43;;;1.63;;
2289;SDS011;1153;47.986;7.898;2022-07-29T11:52:18;3.50;;;2.40;;
2289;SDS011;1153;47.986;7.898;2022-07-29T11:54:43;2.20;;;2.10;;
2289;SDS011;1153;47.986;7.898;2022-07-29T11:57:10;2.93;;;2.73;;
2289;SDS011;1153;47.986;7.898;2022-07-29T11:59:42;15.33;;;2.10;;
2289;SDS011;1153;47.986;7.898;2022-07-29T12:02:08;3.10;;;2.30;;
2289;SDS011;1153;47.986;7.898;2022-07-29T12:04:33;6.40;;;2.27;;
2289;SDS011;1153;47.986;7.898;2022-07-29T12:06:59;4.40;;;2.50;;
2289;SDS011;1153;47.986;7.898;2022-07-29T12:09:24;2.50;;;2.40;;
2289;SDS011;1153;47.986;7.898;2022-07-29T12:11:55;3.07;;;2.30;;
2289;SDS011;1153;47.986;7.898;2022-07-29T12:14:25;1.90;;;1.70;;
2289;SDS011;1153;47.986;7.898;2022-07-29T12:16:50;1.70;;;1.60;;
2289;SDS011;1153;47.986;7.898;2022-07-29T12:19:15;2.37;;;1.93;;
2289;SDS011;1153;47.986;7.898;2022-07-29T12:24:09;2.90;;;2.53;;
2289;SDS011;1153;47.986;7.898;2022-07-29T12:26:34;3.20;;;3.10;;
2289;SDS011;1153;47.986;7.898;2022-07-29T12:29:00;2.33;;;2.10;;
2289;SDS011;1153;47.986;7.898;2022-07-29T12:31:25;2.40;;;1.80;;
2289;SDS011;1153;47.986;7.898;2022-07-29T12:33:53;1.90;;;1.80;;
2289;SDS011;1153;47.986;7.898;2022-07-29T12:36:18;2.30;;;2.20;;
2289;SDS011;1153;47.986;7.898;2022-07-29T12:38:44;2.90;;;2.37;;
2289;SDS011;1153;47.986;7.898;2022-07-29T12:41:09;6.33;;;2.70;;
2289;SDS011;1153;47.986;7.898;2022-07-29T12:43:35;2.67;;;2.47;;
2289;SDS011;1153;47.986;7.898;2022-07-29T12:46:11;3.50;;;2.20;;
2289;SDS011;1153;47.986;7.898;2022-07-29T12:48:37;2.30;;;2.10;;
2289;SDS011;1153;47.986;7.898;2022-07-29T12:51:03;1.70;;;1.60;;
2289;SDS011;1153;47.986;7.898;2022-07-29T12:53:29;2.20;;;1.90;;
2289;SDS011;1153;47.986;7.898;2022-07-29T12:55:55;2.10;;;2.00;;
2289;SDS011;1153;47.986;7.898;2022-07-29T12:58:28;2.10;;;1.90;;
2289;SDS011;1153;47.986;7.898;2022-07-29T13:01:04;2.23;;;2.13;;
2289;SDS011;1153;47.986;7.898;2022-07-29T13:03:41;2.10;;;2.00;;
2289;SDS011;1153;47.986;7.898;2022-07-29T13:06:06;1.73;;;1.63;;
2289;SDS011;1153;47.986;7.898;2022-07-29T13:08:32;2.40;;;2.30;;
2289;SDS011;1153;47.986;7.898;2022-07-29T13:10:57;1.87;;;1.77;;
2289;SDS011;1153;47.986;7.898;2022-07-29T13:13:22;2.83;;;1.40;;
2289;SDS011;1153;47.986;7.898;2022-07-29T13:15:53;6.20;;;2.37;;
2289;SDS011;1153;47.986;7.898;2022-07-29T13:18:30;1.70;;;1.60;;
2289;SDS011;1153;47.986;7.898;2022-07-29T13:20:56;1.40;;;1.30;;
2289;SDS011;1153;47.986;7.898;2022-07-29T13:23:22;1.63;;;1.53;;
2289;SDS011;1153;47.986;7.898;2022-07-29T13:25:47;2.37;;;2.03;;
2289;SDS011;1153;47.986;7.898;2022-07-29T13:28:12;1.40;;;1.30;;
2289;SDS011;1153;47.986;7.898;2022-07-29T13:30:39;4.30;;;1.73;;
2289;SDS011;1153;47.986;7.898;2022-07-29T13:33:04;1.63;;;1.27;;
2289;SDS011;1153;47.986;7.898;2022-07-29T13:35:29;3.33;;;1.20;;
2289;SDS011;1153;47.986;7.898;2022-07-29T13:37:55;1.80;;;1.70;;
2289;SDS011;1153;47.986;7.898;2022-07-29T13:40:20;3.00;;;1.13;;
2289;SDS011;1153;47.986;7.898;2022-07-29T13:42:45;1.60;;;1.50;;
2289;SDS011;1153;47.986;7.898;2022-07-29T13:45:10;3.43;;;1.53;;
2289;SDS011;1153;47.986;7.898;2022-07-29T13:47:36;1.80;;;1.70;;
2289;SDS011;1153;47.986;7.898;2022-07-29T13:50:02;1.27;;;1.17;;
2289;SDS011;1153;47.986;7.898;2022-07-29T13:52:28;5.03;;;1.00;;
2289;SDS011;1153;47.986;7.898;2022-07-29T13:54:53;1.67;;;1.20;;
2289;SDS011;1153;47.986;7.898;2022-07-29T13:57:18;1.10;;;1.00;;
2289;SDS011;1153;47.986;7.898;2022-07-29T13:59:44;2.10;;;1.90;;
2289;SDS011;1153;47.986;7.898;2022-07-29T14:02:10;10.13;;;1.40;;
2289;SDS011;1153;47.986;7.898;2022-07-29T14:04:35;1.40;;;1.30;;
2289;SDS011;1153;47.986;7.898;2022-07-29T14:07:01;3.43;;;1.10;;
2289;SDS011;1153;47.986;7.898;2022-07-29T14:09:26;2.63;;;1.03;;
2289;SDS011;1153;47.986;7.898;2022-07-29T14:11:51;1.60;;;1.50;;
2289;SDS011;1153;47.986;7.898;2022-07-29T14:14:18;2.03;;;1.20;;
2289;SDS011;1153;47.986;7.898;2022-07-29T14:16:43;0.97;;;0.90;;
2289;SDS011;1153;47.986;7.898;2022-07-29T14:19:08;2.03;;;1.00;;
2289;SDS011;1153;47.986;7.898;2022-07-29T14:21:33;5.47;;;1.70;;
2289;SDS011;1153;47.986;7.898;2022-07-29T14:23:59;5.00;;;1.77;;
2289;SDS011;1153;47.986;7.898;2022-07-29T14:26:24;2.37;;;0.90;;
2289;SDS011;1153;47.986;7.898;2022-07-29T14:28:49;5.23;;;1.60;;
2289;SDS011;1153;47.986;7.898;2022-07-29T14:31:15;1.23;;;1.13;;
2289;SDS011;1153;47.986;7.898;2022-07-29T14:33:40;0.80;;;0.70;;
2289;SDS011;1153;47.986;7.898;2022-07-29T14:36:06;1.33;;;1.23;;
2289;SDS011;1153;47.986;7.898;2022-07-29T14:38:31;2.03;;;1.63;;
2289;SDS011;1153;47.986;7.898;2022-07-29T14:40:56;1.60;;;1.33;;
2289;SDS011;1153;47.986;7.898;2022-07-29T14:43:22;2.07;;;1.20;;
2289;SDS011;1153;47.986;7.898;2022-07-29T14:45:47;1.70;;;1.40;;
2289;SDS011;1153;47.986;7.898;2022-07-29T14:48:13;1.13;;;1.03;;
2289;SDS011;1153;47.986;7.898;2022-07-29T14:50:38;1.07;;;0.90;;
2289;SDS011;1153;47.986;7.898;2022-07-29T14:53:03;1.83;;;1.10;;
2289;SDS011;1153;47.986;7.898;2022-07-29T14:55:29;1.40;;;1.10;;
2289;SDS011;1153;47.986;7.898;2022-07-29T14:57:54;1.23;;;1.13;;
2289;SDS011;1153;47.986;7.898;2022-07-29T15:00:20;1.20;;;1.10;;
2289;SDS011;1153;47.986;7.898;2022-07-29T15:02:46;2.77;;;1.43;;
2289;SDS011;1153;47.986;7.898;2022-07-29T15:05:11;1.20;;;1.10;;
2289;SDS011;1153;47.986;7.898;2022-07-29T15:07:36;1.57;;;1.10;;
2289;SDS011;1153;47.986;7.898;2022-07-29T15:10:01;1.20;;;0.87;;
2289;SDS011;1153;47.986;7.898;2022-07-29T15:12:29;5.77;;;2.40;;
2289;SDS011;1153;47.986;7.898;2022-07-29T15:14:54;4.43;;;1.40;;
2289;SDS011;1153;47.986;7.898;2022-07-29T15:17:19;1.07;;;0.97;;
2289;SDS011;1153;47.986;7.898;2022-07-29T15:19:45;2.60;;;1.13;;
2289;SDS011;1153;47.986;7.898;2022-07-29T15:22:10;9.20;;;1.10;;
2289;SDS011;1153;47.986;7.898;2022-07-29T15:24:35;1.23;;;0.80;;
2289;SDS011;1153;47.986;7.898;2022-07-29T15:27:00;0.90;;;0.80;;
2289;SDS011;1153;47.986;7.898;2022-07-29T15:29:26;3.27;;;1.63;;
2289;SDS011;1153;47.986;7.898;2022-07-29T15:31:51;4.73;;;1.40;;
2289;SDS011;1153;47.986;7.898;2022-07-29T15:34:16;0.90;;;0.90;;
2289;SDS011;1153;47.986;7.898;2022-07-29T15:36:41;2.73;;;1.00;;
2289;SDS011;1153;47.986;7.898;2022-07-29T15:39:07;0.83;;;0.77;;
2289;SDS011;1153;47.986;7.898;2022-07-29T15:41:32;1.30;;;0.70;;
2289;SDS011;1153;47.986;7.898;2022-07-29T15:43:58;1.43;;;0.77;;
2289;SDS011;1153;47.986;7.898;2022-07-29T15:46:23;1.23;;;1.00;;
2289;SDS011;1153;47.986;7.898;2022-07-29T15:49:07;4.77;;;0.87;;
2289;SDS011;1153;47.986;7.898;2022-07-29T15:51:32;1.10;;;0.90;;
2289;SDS011;1153;47.986;7.898;2022-07-29T15:53:57;0.80;;;0.80;;
2289;SDS011;1153;47.986;7.898;2022-07-29T15:56:23;3.43;;;0.97;;
2289;SDS011;1153;47.986;7.898;2022-07-29T15:58:48;1.57;;;0.90;;